sensor_id;sensor_type;location;lat;lon;timestamp;pressure;altitude;pressure_sealevel;temperature;humidity
68965;BME280;56017;48.680;8.998;2023-02-01T00:00:16;97370;;;3.4;86
68965;BME280;56017;48.680;8.998;2023-02-01T00:02:39;97360;;;3.4;86
68965;BME280;56017;48.680;8.998;2023-02-01T00:05:09;97360;;;3.4;86
68965;BME280;56017;48.680;8.998;2023-02-01T00:07:52;97360;;;3.4;86
68965;BME280;56017;48.680;8.998;2023-02-01T00:10:10;97360;;;3.4;86
68965;BME280;56017;48.680;8.998;2023-02-01T00:15:10;97350;;;3.5;86
68965;BME280;56017;48.680;8.998;2023-02-01T00:17:54;97360;;;3.5;86
68965;BME280;56017;48.680;8.998;2023-02-01T00:20:10;97360;;;3.5;85.5
68965;BME280;56017;48.680;8.998;2023-02-01T00:22:47;97360;;;3.6;86
68965;BME280;56017;48.680;8.998;2023-02-01T00:25:10;97350;;;3.6;86
68965;BME280;56017;48.680;8.998;2023-02-01T00:27:54;97350;;;3.6;86
68965;BME280;56017;48.680;8.998;2023-02-01T00:30:11;97340;;;3.6;85.5
68965;BME280;56017;48.680;8.998;2023-02-01T00:32:48;97340;;;3.6;85.5
68965;BME280;56017;48.680;8.998;2023-02-01T00:35:11;97340;;;3.7;85.5
68965;BME280;56017;48.680;8.998;2023-02-01T00:37:41;97330;;;3.7;85.5
68965;BME280;56017;48.680;8.998;2023-02-01T00:40:12;97330;;;3.7;85.5
68965;BME280;56017;48.680;8.998;2023-02-01T00:42:48;97320;;;3.7;85.5
68965;BME280;56017;48.680;8.998;2023-02-01T00:45:12;97330;;;3.7;85.5
68965;BME280;56017;48.680;8.998;2023-02-01T00:47:55;97330;;;3.7;85.5
68965;BME280;56017;48.680;8.998;2023-02-01T00:50:19;97310;;;3.7;85.5
68965;BME280;56017;48.680;8.998;2023-02-01T00:55:13;97300;;;3.7;85.5
68965;BME280;56017;48.680;8.998;2023-02-01T00:57:43;97310;;;3.7;85.5
68965;BME280;56017;48.680;8.998;2023-02-01T01:00:20;97300;;;3.7;85.5
68965;BME280;56017;48.680;8.998;2023-02-01T01:05:13;97300;;;3.7;85.5
68965;BME280;56017;48.680;8.998;2023-02-01T01:07:50;97310;;;3.7;85.5
68965;BME280;56017;48.680;8.998;2023-02-01T01:10:20;97320;;;3.7;85.5
68965;BME280;56017;48.680;8.998;2023-02-01T01:12:50;97320;;;3.8;85.5
68965;BME280;56017;48.680;8.998;2023-02-01T01:15:14;97330;;;3.8;85.5
68965;BME280;56017;48.680;8.998;2023-02-01T01:17:57;97320;;;3.8;85.5
68965;BME280;56017;48.680;8.998;2023-02-01T01:20:21;97310;;;3.8;85.5
68965;BME280;56017;48.680;8.998;2023-02-01T01:25:15;97310;;;3.8;85.5
68965;BME280;56017;48.680;8.998;2023-02-01T01:27:58;97300;;;3.9;85.5
68965;BME280;56017;48.680;8.998;2023-02-01T01:30:15;97300;;;3.8;85.5
68965;BME280;56017;48.680;8.998;2023-02-01T01:35:16;97300;;;3.9;85.5
68965;BME280;56017;48.680;8.998;2023-02-01T01:37:59;97300;;;3.9;85.5
68965;BME280;56017;48.680;8.998;2023-02-01T01:40:22;97310;;;3.9;85.5
68965;BME280;56017;48.680;8.998;2023-02-01T01:42:53;97300;;;3.9;85.5
68965;BME280;56017;48.680;8.998;2023-02-01T01:45:19;97300;;;3.9;85.5
68965;BME280;56017;48.680;8.998;2023-02-01T01:48:02;97300;;;3.9;85.5
68965;BME280;56017;48.680;8.998;2023-02-01T01:50:19;97310;;;3.9;85.5
68965;BME280;56017;48.680;8.998;2023-02-01T01:52:48;97300;;;3.9;85.5
68965;BME280;56017;48.680;8.998;2023-02-01T01:55:18;97290;;;3.9;85.5
68965;BME280;56017;48.680;8.998;2023-02-01T01:57:56;97300;;;3.9;85.5
68965;BME280;56017;48.680;8.998;2023-02-01T02:00:18;97290;;;3.9;85.5
68965;BME280;56017;48.680;8.998;2023-02-01T02:02:56;97280;;;3.9;85.5
68965;BME280;56017;48.680;8.998;2023-02-01T02:05:18;97280;;;3.9;85.5
68965;BME280;56017;48.680;8.998;2023-02-01T02:08:01;97280;;;3.9;85.5
68965;BME280;56017;48.680;8.998;2023-02-01T02:10:25;97270;;;3.9;85.5
68965;BME280;56017;48.680;8.998;2023-02-01T02:13:01;97270;;;3.9;85.5
68965;BME280;56017;48.680;8.998;2023-02-01T02:15:18;97280;;;4;85.5
68965;BME280;56017;48.680;8.998;2023-02-01T02:18:05;97280;;;4;85.5
68965;BME280;56017;48.680;8.998;2023-02-01T02:20:22;97270;;;4;85.5
68965;BME280;56017;48.680;8.998;2023-02-01T02:25:22;97280;;;4.1;85.5
68965;BME280;56017;48.680;8.998;2023-02-01T02:29:00;97280;;;4.1;85.5
68965;BME280;56017;48.680;8.998;2023-02-01T02:30:32;97280;;;4.1;85.5
68965;BME280;56017;48.680;8.998;2023-02-01T02:35:30;97280;;;4.2;85.5
68965;BME280;56017;48.680;8.998;2023-02-01T02:38:15;97270;;;4.3;85.5
68965;BME280;56017;48.680;8.998;2023-02-01T02:40:25;97270;;;4.3;85.5
68965;BME280;56017;48.680;8.998;2023-02-01T02:45:25;97270;;;4.3;85.5
68965;BME280;56017;48.680;8.998;2023-02-01T02:48:09;97270;;;4.3;85.5
68965;BME280;56017;48.680;8.998;2023-02-01T02:50:26;97270;;;4.4;85.5
68965;BME280;56017;48.680;8.998;2023-02-01T02:53:02;97260;;;4.3;85
68965;BME280;56017;48.680;8.998;2023-02-01T02:55:21;97260;;;4.4;85.5
68965;BME280;56017;48.680;8.998;2023-02-01T02:58:05;97270;;;4.4;85.5
68965;BME280;56017;48.680;8.998;2023-02-01T03:00:29;97270;;;4.4;85
68965;BME280;56017;48.680;8.998;2023-02-01T03:03:05;97260;;;4.4;85
68965;BME280;56017;48.680;8.998;2023-02-01T03:05:22;97250;;;4.4;85.5
68965;BME280;56017;48.680;8.998;2023-02-01T03:08:14;97260;;;4.5;85
68965;BME280;56017;48.680;8.998;2023-02-01T03:10:32;97250;;;4.4;85
68965;BME280;56017;48.680;8.998;2023-02-01T03:13:08;97240;;;4.4;85
68965;BME280;56017;48.680;8.998;2023-02-01T03:15:24;97240;;;4.4;85
68965;BME280;56017;48.680;8.998;2023-02-01T03:17:53;97240;;;4.4;85.5
68965;BME280;56017;48.680;8.998;2023-02-01T03:20:30;97250;;;4.4;85.5
68965;BME280;56017;48.680;8.998;2023-02-01T03:23:00;97250;;;4.4;85.5
68965;BME280;56017;48.680;8.998;2023-02-01T03:25:25;97250;;;4.4;85.5
68965;BME280;56017;48.680;8.998;2023-02-01T03:28:02;97260;;;4.4;85.5
68965;BME280;56017;48.680;8.998;2023-02-01T03:30:25;97260;;;4.5;85.5
68965;BME280;56017;48.680;8.998;2023-02-01T03:33:02;97260;;;4.5;85.5
68965;BME280;56017;48.680;8.998;2023-02-01T03:35:28;97250;;;4.5;85.5
68965;BME280;56017;48.680;8.998;2023-02-01T03:38:10;97240;;;4.5;85.5
68965;BME280;56017;48.680;8.998;2023-02-01T03:40:25;97240;;;4.5;85.5
68965;BME280;56017;48.680;8.998;2023-02-01T03:43:01;97240;;;4.5;85.5
68965;BME280;56017;48.680;8.998;2023-02-01T03:45:27;97230;;;4.5;85
68965;BME280;56017;48.680;8.998;2023-02-01T03:48:08;97220;;;4.4;85.5
68965;BME280;56017;48.680;8.998;2023-02-01T03:50:32;97220;;;4.4;85.5
68965;BME280;56017;48.680;8.998;2023-02-01T03:53:04;97210;;;4.4;85.5
68965;BME280;56017;48.680;8.998;2023-02-01T03:55:26;97210;;;4.4;85.5
68965;BME280;56017;48.680;8.998;2023-02-01T03:58:10;97210;;;4.5;85.5
68965;BME280;56017;48.680;8.998;2023-02-01T04:00:32;97200;;;4.5;85.5
68965;BME280;56017;48.680;8.998;2023-02-01T04:03:10;97190;;;4.5;85
68965;BME280;56017;48.680;8.998;2023-02-01T04:05:26;97190;;;4.5;85
68965;BME280;56017;48.680;8.998;2023-02-01T04:08:10;97190;;;4.5;85.5
68965;BME280;56017;48.680;8.998;2023-02-01T04:10:33;97190;;;4.5;85.5
68965;BME280;56017;48.680;8.998;2023-02-01T04:13:03;97190;;;4.5;85.5
68965;BME280;56017;48.680;8.998;2023-02-01T04:15:27;97210;;;4.5;85.5
68965;BME280;56017;48.680;8.998;2023-02-01T04:18:10;97210;;;4.6;85.5
68965;BME280;56017;48.680;8.998;2023-02-01T04:20:34;97220;;;4.6;85.5
68965;BME280;56017;48.680;8.998;2023-02-01T04:23:11;97220;;;4.6;85.5
68965;BME280;56017;48.680;8.998;2023-02-01T04:25:29;97220;;;4.6;85.5
68965;BME280;56017;48.680;8.998;2023-02-01T04:28:11;97230;;;4.7;85.5
68965;BME280;56017;48.680;8.998;2023-02-01T04:30:29;97230;;;4.7;85.5
68965;BME280;56017;48.680;8.998;2023-02-01T04:33:11;97230;;;4.7;85
68965;BME280;56017;48.680;8.998;2023-02-01T04:35:28;97210;;;4.6;85
68965;BME280;56017;48.680;8.998;2023-02-01T04:38:12;97220;;;4.5;85.5
68965;BME280;56017;48.680;8.998;2023-02-01T04:40:29;97220;;;4.5;85.5
68965;BME280;56017;48.680;8.998;2023-02-01T04:43:12;97210;;;4.6;85
68965;BME280;56017;48.680;8.998;2023-02-01T04:45:29;97220;;;4.5;85
68965;BME280;56017;48.680;8.998;2023-02-01T04:48:12;97220;;;4.5;85.5
68965;BME280;56017;48.680;8.998;2023-02-01T04:50:36;97210;;;4.6;85
68965;BME280;56017;48.680;8.998;2023-02-01T04:53:12;97220;;;4.6;85
68965;BME280;56017;48.680;8.998;2023-02-01T04:55:30;97220;;;4.6;85
68965;BME280;56017;48.680;8.998;2023-02-01T04:58:13;97220;;;4.6;85
68965;BME280;56017;48.680;8.998;2023-02-01T05:00:30;97220;;;4.6;85.5
68965;BME280;56017;48.680;8.998;2023-02-01T05:03:14;97210;;;4.7;85
68965;BME280;56017;48.680;8.998;2023-02-01T05:08:14;97180;;;4.6;85
68965;BME280;56017;48.680;8.998;2023-02-01T05:10:32;97170;;;4.5;85
68965;BME280;56017;48.680;8.998;2023-02-01T05:13:14;97180;;;4.5;85
68965;BME280;56017;48.680;8.998;2023-02-01T05:15:31;97180;;;4.5;85.5
68965;BME280;56017;48.680;8.998;2023-02-01T05:18:15;97190;;;4.5;85.5
68965;BME280;56017;48.680;8.998;2023-02-01T05:20:32;97190;;;4.5;85.5
68965;BME280;56017;48.680;8.998;2023-02-01T05:23:15;97190;;;4.5;85.5
68965;BME280;56017;48.680;8.998;2023-02-01T05:25:32;97200;;;4.5;85.5
68965;BME280;56017;48.680;8.998;2023-02-01T05:28:15;97210;;;4.6;85.5
68965;BME280;56017;48.680;8.998;2023-02-01T05:30:32;97210;;;4.6;85.5
68965;BME280;56017;48.680;8.998;2023-02-01T05:33:09;97210;;;4.6;85
68965;BME280;56017;48.680;8.998;2023-02-01T05:35:33;97210;;;4.6;85
68965;BME280;56017;48.680;8.998;2023-02-01T05:38:16;97220;;;4.6;85
68965;BME280;56017;48.680;8.998;2023-02-01T05:40:40;97220;;;4.6;85.5
68965;BME280;56017;48.680;8.998;2023-02-01T05:43:10;97220;;;4.6;85.5
68965;BME280;56017;48.680;8.998;2023-02-01T05:45:33;97230;;;4.7;85
68965;BME280;56017;48.680;8.998;2023-02-01T05:48:17;97240;;;4.6;84.5
68965;BME280;56017;48.680;8.998;2023-02-01T05:50:40;97240;;;4.5;85
68965;BME280;56017;48.680;8.998;2023-02-01T05:53:04;97240;;;4.4;85.5
68965;BME280;56017;48.680;8.998;2023-02-01T05:55:34;97240;;;4.3;85
68965;BME280;56017;48.680;8.998;2023-02-01T05:58:11;97250;;;4.3;85.5
68965;BME280;56017;48.680;8.998;2023-02-01T06:00:34;97250;;;4.3;85.5
68965;BME280;56017;48.680;8.998;2023-02-01T06:03:18;97260;;;4.3;85.5
68965;BME280;56017;48.680;8.998;2023-02-01T06:05:35;97260;;;4.3;85.5
68965;BME280;56017;48.680;8.998;2023-02-01T06:08:18;97270;;;4.3;85
68965;BME280;56017;48.680;8.998;2023-02-01T06:10:35;97270;;;4.2;85
68965;BME280;56017;48.680;8.998;2023-02-01T06:13:19;97270;;;4.1;85.5
68965;BME280;56017;48.680;8.998;2023-02-01T06:15:36;97270;;;4.1;85.5
68965;BME280;56017;48.680;8.998;2023-02-01T06:18:19;97270;;;4.1;85.5
68965;BME280;56017;48.680;8.998;2023-02-01T06:20:36;97270;;;4.1;85.5
68965;BME280;56017;48.680;8.998;2023-02-01T06:23:13;97270;;;4.1;85.5
68965;BME280;56017;48.680;8.998;2023-02-01T06:25:36;97250;;;4.2;85.5
68965;BME280;56017;48.680;8.998;2023-02-01T06:28:20;97240;;;4.2;85.5
68965;BME280;56017;48.680;8.998;2023-02-01T06:30:43;97230;;;4.2;85.5
68965;BME280;56017;48.680;8.998;2023-02-01T06:33:13;97220;;;4.2;85.5
68965;BME280;56017;48.680;8.998;2023-02-01T06:35:37;97220;;;4.2;85.5
68965;BME280;56017;48.680;8.998;2023-02-01T06:40:38;97220;;;4.4;85.5
68965;BME280;56017;48.680;8.998;2023-02-01T06:45:38;97220;;;4.4;85
68965;BME280;56017;48.680;8.998;2023-02-01T06:48:21;97220;;;4.4;85.5
68965;BME280;56017;48.680;8.998;2023-02-01T06:50:45;97220;;;4.4;85.5
68965;BME280;56017;48.680;8.998;2023-02-01T06:53:15;97220;;;4.4;85
68965;BME280;56017;48.680;8.998;2023-02-01T06:55:38;97230;;;4.4;85
68965;BME280;56017;48.680;8.998;2023-02-01T06:58:22;97240;;;4.5;85.5
68965;BME280;56017;48.680;8.998;2023-02-01T07:00:39;97240;;;4.5;85.5
68965;BME280;56017;48.680;8.998;2023-02-01T07:03:16;97230;;;4.6;85
68965;BME280;56017;48.680;8.998;2023-02-01T07:05:39;97230;;;4.6;85
68965;BME280;56017;48.680;8.998;2023-02-01T07:08:22;97230;;;4.6;85
68965;BME280;56017;48.680;8.998;2023-02-01T07:10:46;97230;;;4.7;85.5
68965;BME280;56017;48.680;8.998;2023-02-01T07:13:16;97240;;;4.7;85
68965;BME280;56017;48.680;8.998;2023-02-01T07:15:40;97240;;;4.7;85
68965;BME280;56017;48.680;8.998;2023-02-01T07:18:23;97240;;;4.7;85
68965;BME280;56017;48.680;8.998;2023-02-01T07:20:40;97240;;;4.7;85.5
68965;BME280;56017;48.680;8.998;2023-02-01T07:23:17;97240;;;4.8;85.5
68965;BME280;56017;48.680;8.998;2023-02-01T07:25:41;97260;;;4.8;85
68965;BME280;56017;48.680;8.998;2023-02-01T07:28:24;97270;;;4.9;85.5
68965;BME280;56017;48.680;8.998;2023-02-01T07:30:47;97270;;;4.9;85.5
68965;BME280;56017;48.680;8.998;2023-02-01T07:33:18;97270;;;5;85.5
68965;BME280;56017;48.680;8.998;2023-02-01T07:35:48;97280;;;5.1;85.5
68965;BME280;56017;48.680;8.998;2023-02-01T07:38:18;97280;;;5.1;85.5
68965;BME280;56017;48.680;8.998;2023-02-01T07:40:42;97280;;;5.1;85
68965;BME280;56017;48.680;8.998;2023-02-01T07:43:18;97290;;;5.1;85.5
68965;BME280;56017;48.680;8.998;2023-02-01T07:45:50;97300;;;5.2;85
68965;BME280;56017;48.680;8.998;2023-02-01T07:48:26;97290;;;5.2;85
68965;BME280;56017;48.680;8.998;2023-02-01T07:50:42;97290;;;5.1;85
68965;BME280;56017;48.680;8.998;2023-02-01T07:53:41;97280;;;5.1;85
68965;BME280;56017;48.680;8.998;2023-02-01T07:55:43;97280;;;5.1;85
68965;BME280;56017;48.680;8.998;2023-02-01T07:58:26;97280;;;5.1;85
68965;BME280;56017;48.680;8.998;2023-02-01T08:00:44;97270;;;5.1;85
68965;BME280;56017;48.680;8.998;2023-02-01T08:03:20;97270;;;5.1;85
68965;BME280;56017;48.680;8.998;2023-02-01T08:05:43;97260;;;5.1;85
68965;BME280;56017;48.680;8.998;2023-02-01T08:08:27;97270;;;5.1;85.5
68965;BME280;56017;48.680;8.998;2023-02-01T08:10:50;97270;;;5.2;85.5
68965;BME280;56017;48.680;8.998;2023-02-01T08:13:21;97270;;;5.2;85.5
68965;BME280;56017;48.680;8.998;2023-02-01T08:15:44;97270;;;5.3;85.5
68965;BME280;56017;48.680;8.998;2023-02-01T08:18:28;97270;;;5.3;85.5
68965;BME280;56017;48.680;8.998;2023-02-01T08:20:51;97280;;;5.4;85.5
68965;BME280;56017;48.680;8.998;2023-02-01T08:23:22;97280;;;5.5;85.5
68965;BME280;56017;48.680;8.998;2023-02-01T08:25:45;97280;;;5.5;85.5
68965;BME280;56017;48.680;8.998;2023-02-01T08:28:28;97290;;;5.7;85.5
68965;BME280;56017;48.680;8.998;2023-02-01T08:30:46;97300;;;5.8;85
68965;BME280;56017;48.680;8.998;2023-02-01T08:33:22;97300;;;5.8;85
68965;BME280;56017;48.680;8.998;2023-02-01T08:35:52;97290;;;5.9;85
68965;BME280;56017;48.680;8.998;2023-02-01T08:38:29;97290;;;6;85
68965;BME280;56017;48.680;8.998;2023-02-01T08:40:46;97280;;;6;85
68965;BME280;56017;48.680;8.998;2023-02-01T08:48:30;97290;;;6.2;85
68965;BME280;56017;48.680;8.998;2023-02-01T08:50:48;97290;;;6.2;85
68965;BME280;56017;48.680;8.998;2023-02-01T08:53:24;97280;;;6.2;85
68965;BME280;56017;48.680;8.998;2023-02-01T08:55:47;97290;;;6.2;85
68965;BME280;56017;48.680;8.998;2023-02-01T08:58:31;97290;;;6.2;85
68965;BME280;56017;48.680;8.998;2023-02-01T09:03:31;97300;;;6.1;85
68965;BME280;56017;48.680;8.998;2023-02-01T09:05:50;97300;;;6.1;85
68965;BME280;56017;48.680;8.998;2023-02-01T09:10:48;97290;;;6.1;85
68965;BME280;56017;48.680;8.998;2023-02-01T09:13:31;97300;;;6.1;85
68965;BME280;56017;48.680;8.998;2023-02-01T09:15:50;97310;;;6;85
68965;BME280;56017;48.680;8.998;2023-02-01T09:18:26;97330;;;6;85
68965;BME280;56017;48.680;8.998;2023-02-01T09:20:49;97330;;;5.9;85
68965;BME280;56017;48.680;8.998;2023-02-01T09:23:33;97330;;;5.9;85
68965;BME280;56017;48.680;8.998;2023-02-01T09:25:49;97320;;;5.9;85
68965;BME280;56017;48.680;8.998;2023-02-01T09:28:26;97320;;;5.9;85
68965;BME280;56017;48.680;8.998;2023-02-01T09:30:54;97320;;;5.9;85.5
68965;BME280;56017;48.680;8.998;2023-02-01T09:33:33;97310;;;5.9;85
68965;BME280;56017;48.680;8.998;2023-02-01T09:35:55;97310;;;5.9;85
68965;BME280;56017;48.680;8.998;2023-02-01T09:38:27;97310;;;6;85.5
68965;BME280;56017;48.680;8.998;2023-02-01T09:40:50;97310;;;6;85
68965;BME280;56017;48.680;8.998;2023-02-01T09:43:30;97310;;;6.1;85.5
68965;BME280;56017;48.680;8.998;2023-02-01T09:48:29;97320;;;6.3;85
68965;BME280;56017;48.680;8.998;2023-02-01T09:50:54;97320;;;6.4;85.5
68965;BME280;56017;48.680;8.998;2023-02-01T09:53:38;97320;;;6.5;85
68965;BME280;56017;48.680;8.998;2023-02-01T09:56:00;97330;;;6.4;85
68965;BME280;56017;48.680;8.998;2023-02-01T09:58:30;97320;;;6.5;85
68965;BME280;56017;48.680;8.998;2023-02-01T10:00:53;97320;;;6.5;85
68965;BME280;56017;48.680;8.998;2023-02-01T10:03:29;97320;;;6.5;85
68965;BME280;56017;48.680;8.998;2023-02-01T10:06:02;97320;;;6.6;85
68965;BME280;56017;48.680;8.998;2023-02-01T10:08:33;97330;;;6.7;85
68965;BME280;56017;48.680;8.998;2023-02-01T10:10:53;97330;;;6.8;85
68965;BME280;56017;48.680;8.998;2023-02-01T10:13:43;97340;;;6.9;85
68965;BME280;56017;48.680;8.998;2023-02-01T10:15:56;97330;;;6.9;85
68965;BME280;56017;48.680;8.998;2023-02-01T10:19:04;97340;;;6.9;85
68965;BME280;56017;48.680;8.998;2023-02-01T10:20:56;97340;;;6.9;84.5
68965;BME280;56017;48.680;8.998;2023-02-01T10:24:41;97350;;;6.9;85
68965;BME280;56017;48.680;8.998;2023-02-01T10:26:03;97350;;;6.9;85
68965;BME280;56017;48.680;8.998;2023-02-01T10:28:30;97350;;;6.9;85
68965;BME280;56017;48.680;8.998;2023-02-01T10:30:55;97350;;;6.8;85
68965;BME280;56017;48.680;8.998;2023-02-01T10:33:41;97360;;;6.8;85
68965;BME280;56017;48.680;8.998;2023-02-01T10:35:58;97360;;;6.8;85
68965;BME280;56017;48.680;8.998;2023-02-01T10:38:32;97370;;;6.7;85
68965;BME280;56017;48.680;8.998;2023-02-01T10:40:55;97370;;;6.7;85
68965;BME280;56017;48.680;8.998;2023-02-01T10:43:31;97360;;;6.7;85
68965;BME280;56017;48.680;8.998;2023-02-01T10:46:02;97360;;;6.8;85
68965;BME280;56017;48.680;8.998;2023-02-01T10:48:32;97370;;;6.8;85
68965;BME280;56017;48.680;8.998;2023-02-01T10:50:59;97360;;;6.8;85
68965;BME280;56017;48.680;8.998;2023-02-01T10:53:35;97350;;;6.8;85
68965;BME280;56017;48.680;8.998;2023-02-01T10:56:07;97350;;;6.8;85
68965;BME280;56017;48.680;8.998;2023-02-01T10:58:32;97350;;;6.9;85
68965;BME280;56017;48.680;8.998;2023-02-01T11:00:57;97350;;;6.9;85
68965;BME280;56017;48.680;8.998;2023-02-01T11:06:09;97340;;;6.9;85
68965;BME280;56017;48.680;8.998;2023-02-01T11:08:33;97340;;;6.8;85
68965;BME280;56017;48.680;8.998;2023-02-01T11:10:58;97340;;;6.8;85
68965;BME280;56017;48.680;8.998;2023-02-01T11:13:40;97340;;;6.8;85
68965;BME280;56017;48.680;8.998;2023-02-01T11:16:04;97330;;;6.7;85
68965;BME280;56017;48.680;8.998;2023-02-01T11:18:28;97340;;;6.8;85
68965;BME280;56017;48.680;8.998;2023-02-01T11:20:58;97340;;;6.8;85
68965;BME280;56017;48.680;8.998;2023-02-01T11:23:38;97340;;;6.8;85.5
68965;BME280;56017;48.680;8.998;2023-02-01T11:26:21;97340;;;6.9;85
68965;BME280;56017;48.680;8.998;2023-02-01T11:28:35;97340;;;6.8;85
68965;BME280;56017;48.680;8.998;2023-02-01T11:30:59;97340;;;6.8;85
68965;BME280;56017;48.680;8.998;2023-02-01T11:33:36;97330;;;6.8;85
68965;BME280;56017;48.680;8.998;2023-02-01T11:36:07;97330;;;6.7;85
68965;BME280;56017;48.680;8.998;2023-02-01T11:38:35;97330;;;6.7;85.5
68965;BME280;56017;48.680;8.998;2023-02-01T11:41:16;97320;;;6.7;85
68965;BME280;56017;48.680;8.998;2023-02-01T11:43:50;97320;;;6.6;85
68965;BME280;56017;48.680;8.998;2023-02-01T11:46:00;97310;;;6.6;85.5
68965;BME280;56017;48.680;8.998;2023-02-01T11:48:36;97310;;;6.6;85.5
68965;BME280;56017;48.680;8.998;2023-02-01T11:53:41;97300;;;6.7;85
68965;BME280;56017;48.680;8.998;2023-02-01T11:56:09;97290;;;6.6;85
68965;BME280;56017;48.680;8.998;2023-02-01T11:58:41;97290;;;6.6;85
68965;BME280;56017;48.680;8.998;2023-02-01T12:01:06;97280;;;6.6;85
68965;BME280;56017;48.680;8.998;2023-02-01T12:04:52;97280;;;6.6;85.5
68965;BME280;56017;48.680;8.998;2023-02-01T12:06:07;97280;;;6.6;85
68965;BME280;56017;48.680;8.998;2023-02-01T12:08:44;97270;;;6.6;85.5
68965;BME280;56017;48.680;8.998;2023-02-01T12:11:06;97280;;;6.6;85
68965;BME280;56017;48.680;8.998;2023-02-01T12:13:50;97270;;;6.6;85
68965;BME280;56017;48.680;8.998;2023-02-01T12:16:15;97280;;;6.6;85.5
68965;BME280;56017;48.680;8.998;2023-02-01T12:18:43;97270;;;6.6;85
68965;BME280;56017;48.680;8.998;2023-02-01T12:21:37;97270;;;6.6;85.5
68965;BME280;56017;48.680;8.998;2023-02-01T12:24:15;97260;;;6.6;85
68965;BME280;56017;48.680;8.998;2023-02-01T12:26:17;97270;;;6.6;85
68965;BME280;56017;48.680;8.998;2023-02-01T12:28:36;97270;;;6.6;85.5
68965;BME280;56017;48.680;8.998;2023-02-01T12:31:07;97270;;;6.6;85
68965;BME280;56017;48.680;8.998;2023-02-01T12:34:05;97280;;;6.6;85
68965;BME280;56017;48.680;8.998;2023-02-01T12:36:21;97270;;;6.5;85
68965;BME280;56017;48.680;8.998;2023-02-01T12:38:45;97270;;;6.5;85
68965;BME280;56017;48.680;8.998;2023-02-01T12:41:15;97270;;;6.5;85
68965;BME280;56017;48.680;8.998;2023-02-01T12:43:49;97270;;;6.5;85.5
68965;BME280;56017;48.680;8.998;2023-02-01T12:46:06;97270;;;6.5;85.5
68965;BME280;56017;48.680;8.998;2023-02-01T12:48:44;97260;;;6.6;85
68965;BME280;56017;48.680;8.998;2023-02-01T12:51:07;97250;;;6.6;85.5
68965;BME280;56017;48.680;8.998;2023-02-01T12:53:46;97260;;;6.6;85.5
68965;BME280;56017;48.680;8.998;2023-02-01T12:58:43;97250;;;6.6;85
68965;BME280;56017;48.680;8.998;2023-02-01T13:06:07;97260;;;6.6;85.5
68965;BME280;56017;48.680;8.998;2023-02-01T13:08:44;97260;;;6.6;85
68965;BME280;56017;48.680;8.998;2023-02-01T13:11:14;97270;;;6.6;85.5
68965;BME280;56017;48.680;8.998;2023-02-01T13:13:45;97270;;;6.6;85
68965;BME280;56017;48.680;8.998;2023-02-01T13:16:24;97270;;;6.6;85
68965;BME280;56017;48.680;8.998;2023-02-01T13:21:14;97270;;;6.6;85.5
68965;BME280;56017;48.680;8.998;2023-02-01T13:23:44;97260;;;6.6;85
68965;BME280;56017;48.680;8.998;2023-02-01T13:26:13;97260;;;6.6;85.5
68965;BME280;56017;48.680;8.998;2023-02-01T13:28:51;97250;;;6.6;85.5
68965;BME280;56017;48.680;8.998;2023-02-01T13:31:20;97250;;;6.6;85
68965;BME280;56017;48.680;8.998;2023-02-01T13:33:41;97230;;;6.6;85.5
68965;BME280;56017;48.680;8.998;2023-02-01T13:36:27;97230;;;6.6;85
68965;BME280;56017;48.680;8.998;2023-02-01T13:38:59;97240;;;6.5;85
68965;BME280;56017;48.680;8.998;2023-02-01T13:41:13;97240;;;6.5;85.5
68965;BME280;56017;48.680;8.998;2023-02-01T13:43:46;97240;;;6.5;85
68965;BME280;56017;48.680;8.998;2023-02-01T13:46:09;97240;;;6.5;85
68965;BME280;56017;48.680;8.998;2023-02-01T13:48:52;97240;;;6.5;85.5
68965;BME280;56017;48.680;8.998;2023-02-01T13:51:15;97240;;;6.5;85
68965;BME280;56017;48.680;8.998;2023-02-01T13:53:43;97240;;;6.4;85.5
68965;BME280;56017;48.680;8.998;2023-02-01T13:56:11;97240;;;6.4;85.5
68965;BME280;56017;48.680;8.998;2023-02-01T13:58:46;97240;;;6.4;85.5
68965;BME280;56017;48.680;8.998;2023-02-01T14:01:32;97230;;;6.4;85.5
68965;BME280;56017;48.680;8.998;2023-02-01T14:04:02;97230;;;6.5;85
68965;BME280;56017;48.680;8.998;2023-02-01T14:06:18;97230;;;6.5;85.5
68965;BME280;56017;48.680;8.998;2023-02-01T14:09:16;97230;;;6.5;85.5
68965;BME280;56017;48.680;8.998;2023-02-01T14:13:46;97230;;;6.5;85
68965;BME280;56017;48.680;8.998;2023-02-01T14:16:11;97230;;;6.5;85
68965;BME280;56017;48.680;8.998;2023-02-01T14:18:58;97230;;;6.5;85.5
68965;BME280;56017;48.680;8.998;2023-02-01T14:21:19;97220;;;6.5;85.5
68965;BME280;56017;48.680;8.998;2023-02-01T14:23:53;97210;;;6.5;85.5
68965;BME280;56017;48.680;8.998;2023-02-01T14:26:12;97210;;;6.5;85.5
68965;BME280;56017;48.680;8.998;2023-02-01T14:28:50;97220;;;6.5;85.5
68965;BME280;56017;48.680;8.998;2023-02-01T14:31:28;97220;;;6.5;85
68965;BME280;56017;48.680;8.998;2023-02-01T14:33:48;97240;;;6.4;85.5
68965;BME280;56017;48.680;8.998;2023-02-01T14:36:12;97230;;;6.4;85.5
68965;BME280;56017;48.680;8.998;2023-02-01T14:38:49;97250;;;6.4;85.5
68965;BME280;56017;48.680;8.998;2023-02-01T14:41:16;97230;;;6.4;85.5
68965;BME280;56017;48.680;8.998;2023-02-01T14:48:43;97240;;;6.4;85.5
68965;BME280;56017;48.680;8.998;2023-02-01T14:51:14;97240;;;6.4;85.5
68965;BME280;56017;48.680;8.998;2023-02-01T14:56:14;97260;;;6.4;85.5
68965;BME280;56017;48.680;8.998;2023-02-01T14:58:58;97270;;;6.4;85.5
68965;BME280;56017;48.680;8.998;2023-02-01T15:01:22;97270;;;6.4;85.5
68965;BME280;56017;48.680;8.998;2023-02-01T15:03:53;97270;;;6.4;85.5
68965;BME280;56017;48.680;8.998;2023-02-01T15:06:18;97260;;;6.4;85.5
68965;BME280;56017;48.680;8.998;2023-02-01T15:09:08;97270;;;6.5;85.5
68965;BME280;56017;48.680;8.998;2023-02-01T15:11:14;97270;;;6.5;85.5
68965;BME280;56017;48.680;8.998;2023-02-01T15:13:52;97260;;;6.4;85.5
68965;BME280;56017;48.680;8.998;2023-02-01T15:16:15;97260;;;6.4;85.5
68965;BME280;56017;48.680;8.998;2023-02-01T15:19:06;97270;;;6.5;85.5
68965;BME280;56017;48.680;8.998;2023-02-01T15:21:22;97270;;;6.5;85.5
68965;BME280;56017;48.680;8.998;2023-02-01T15:24:03;97260;;;6.5;85.5
68965;BME280;56017;48.680;8.998;2023-02-01T15:26:31;97270;;;6.5;85.5
68965;BME280;56017;48.680;8.998;2023-02-01T15:28:52;97280;;;6.5;85.5
68965;BME280;56017;48.680;8.998;2023-02-01T15:33:55;97280;;;6.3;85
68965;BME280;56017;48.680;8.998;2023-02-01T15:36:17;97290;;;6.1;84.5
68965;BME280;56017;48.680;8.998;2023-02-01T15:39:24;97280;;;5.9;85
68965;BME280;56017;48.680;8.998;2023-02-01T15:41:18;97280;;;5.9;85.5
68965;BME280;56017;48.680;8.998;2023-02-01T15:43:48;97270;;;6;85.5